Eiho Maru No.1 — JD4169 — position and weather

sailwx.info

Track history (hours):
 
Tides and Currents Weather Stations Pressure Air Temp Water Temp Dewpoint Dewpoint Depression Visibility Wind Speed Wind Dir Waves Ship Positions

Eiho Maru No.1

Last reported at 2017-Dec-16 23:27 UTC. Time now 2017-Dec-17 02:43 UTC.
Position N 35°41' E 139°59'.

Length 60 m; draft 3.5 m.

Type: Tanker. MMSI: 431009376.

Date/timePositionNaut miles runAvg speedWind from/ knotsBaromVisibWave heightAir tempDewpointWater temp
2017-Dec-16 23:27N 35°41' E 139°59'2 3.6
2017-Dec-16 23:00N 35°39' E 139°59'3 6.1
2017-Dec-16 22:30N 35°36' E 139°57'0 0.1
2017-Dec-16 22:00N 35°36' E 139°57'0 0.0
2017-Dec-16 21:30N 35°36' E 139°57'0 0.0
2017-Dec-16 20:57N 35°36' E 139°57'0 0.0
2017-Dec-16 20:30N 35°36' E 139°57'0 0.0
2017-Dec-16 20:00N 35°36' E 139°57'0 0.0
2017-Dec-16 18:46N 35°36' E 139°57'0 0.0
2017-Dec-16 18:29N 35°36' E 139°57'0 0.1
2017-Dec-16 18:00N 35°36' E 139°57'0 0.0
2017-Dec-16 17:24N 35°37' E 139°57'0 0.0
2017-Dec-16 16:54N 35°37' E 139°57'0 0.0
2017-Dec-16 16:29N 35°37' E 139°57'0 0.0
2017-Dec-16 16:00N 35°37' E 139°57'0 0.1
2017-Dec-16 15:30N 35°37' E 139°57'0 0.1
2017-Dec-16 15:00N 35°37' E 139°57'0 0.1
2017-Dec-16 14:28N 35°37' E 139°57'0 0.0
2017-Dec-16 13:59N 35°37' E 139°57'0 0.0
2017-Dec-16 13:28N 35°37' E 139°57'0 0.0
2017-Dec-16 13:00N 35°37' E 139°57'0 0.0
2017-Dec-16 12:30N 35°37' E 139°57'0 0.0
2017-Dec-16 12:00N 35°37' E 139°57'0 0.0
2017-Dec-16 11:29N 35°37' E 139°57'0 0.0
2017-Dec-16 11:00N 35°37' E 139°57'0 0.0
2017-Dec-16 10:30N 35°37' E 139°57'0 0.0
2017-Dec-16 10:00N 35°37' E 139°57'0 0.0
2017-Dec-16 09:30N 35°37' E 139°57'4 7.8
2017-Dec-16 09:00N 35°40' E 139°57'1 0.3
2017-Dec-16 05:38N 35°40' E 139°57'311.4
2017-Dec-16 05:23N 35°37' E 139°59'411.6
2017-Dec-16 05:00N 35°33' E 140°02'2 0.3
2017-Dec-15 23:12N 35°32' E 140°03'0 0.5
2017-Dec-15 23:01N 35°32' E 140°03'2 3.1
2017-Dec-15 22:31N 35°33' E 140°03'4 7.2
2017-Dec-15 22:00N 35°36' E 140°06'0 0.9
2017-Dec-15 21:29N 35°36' E 140°06'0 0.0
2017-Dec-15 20:59N 35°36' E 140°06'0 0.0
2017-Dec-15 20:29N 35°36' E 140°06'0 0.0
2017-Dec-15 19:59N 35°36' E 140°06'0 0.0
2017-Dec-15 19:23N 35°36' E 140°06'0 0.0
2017-Dec-15 18:59N 35°36' E 140°06'0 0.0
2017-Dec-15 18:29N 35°36' E 140°06'0 0.0
2017-Dec-15 17:59N 35°36' E 140°06'0 0.0
2017-Dec-15 17:29N 35°36' E 140°06'0 0.0
2017-Dec-15 16:59N 35°36' E 140°06'0 0.0
2017-Dec-15 16:29N 35°36' E 140°06'0 0.0
2017-Dec-15 15:59N 35°36' E 140°06'0 0.0
2017-Dec-15 15:29N 35°36' E 140°06'0 0.0
2017-Dec-15 14:59N 35°36' E 140°06'0 0.0
2017-Dec-15 14:29N 35°36' E 140°06'0 0.0
2017-Dec-15 13:59N 35°36' E 140°06'0 0.0
2017-Dec-15 13:29N 35°36' E 140°06'0 0.0
2017-Dec-15 12:59N 35°36' E 140°06'0 0.0
2017-Dec-15 12:29N 35°36' E 140°06'0 0.0
2017-Dec-15 11:59N 35°36' E 140°06'0 0.0
2017-Dec-15 11:29N 35°36' E 140°06'0 0.0
2017-Dec-15 10:59N 35°36' E 140°06'0 0.0
2017-Dec-15 10:29N 35°36' E 140°06'0 0.0
2017-Dec-15 09:59N 35°36' E 140°06'0 0.0
2017-Dec-15 09:29N 35°36' E 140°06'0 0.0
2017-Dec-15 08:59N 35°36' E 140°06'0 0.0
2017-Dec-15 08:29N 35°36' E 140°06'0 0.0
2017-Dec-15 07:59N 35°36' E 140°06'0 0.0
2017-Dec-15 07:29N 35°36' E 140°06'0 0.0
2017-Dec-15 06:59N 35°36' E 140°06'0 0.0
2017-Dec-15 06:29N 35°36' E 140°06'0 0.0
2017-Dec-15 05:59N 35°36' E 140°06'0 0.0
2017-Dec-15 05:23N 35°36' E 140°06'0 0.0
2017-Dec-15 04:59N 35°36' E 140°06'0 0.0
2017-Dec-15 04:29N 35°36' E 140°06'0 0.0
2017-Dec-15 04:01N 35°36' E 140°06'10 6.8
2017-Dec-15 02:31N 35°29' E 139°57'2 0.2
2017-Dec-14 18:26N 35°29' E 139°55'0 0.0
2017-Dec-14 17:44N 35°29' E 139°55'0 0.0
2017-Dec-14 17:26N 35°29' E 139°55'1 1.3
2017-Dec-14 17:00N 35°29' E 139°54'510.7
2017-Dec-14 16:30N 35°26' E 139°48'611.2
2017-Dec-14 16:00N 35°21' E 139°45'1110.8
2017-Dec-14 15:00N 35°10' E 139°46'510.3
2017-Dec-14 14:30N 35°06' E 139°43'510.9
2017-Dec-14 14:00N 35°02' E 139°38'611.5
2017-Dec-14 13:30N 34°59' E 139°32'711.8
2017-Dec-14 12:55N 34°55' E 139°25'512.5
2017-Dec-14 12:30N 34°52' E 139°21'713.4
2017-Dec-14 12:00N 34°48' E 139°14'813.7
2017-Dec-14 11:27N 34°43' E 139°07'512.3
2017-Dec-14 11:01N 34°39' E 139°02'612.3
2017-Dec-14 10:30N 34°36' E 138°56'912.4
2017-Dec-14 09:47N 34°34' E 138°46'412.8
2017-Dec-14 09:27N 34°33' E 138°41'611.8
2017-Dec-14 08:58N 34°31' E 138°34'611.9
2017-Dec-14 08:29N 34°30' E 138°27'711.9
2017-Dec-14 07:51N 34°28' E 138°18'411.9
2017-Dec-14 07:30N 34°27' E 138°13'711.3
2017-Dec-14 06:51N 34°25' E 138°05'411.2
2017-Dec-14 06:28N 34°24' E 137°60'152 9.6
2017-Dec-13 14:37N 33°55' E 134°60'112.2
2017-Dec-13 14:30N 33°56' E 134°58'612.2
2017-Dec-13 14:00N 34°00' E 134°54'612.2
2017-Dec-13 13:30N 34°05' E 134°49'712.8
2017-Dec-13 12:57N 34°10' E 134°43'613.7
2017-Dec-13 12:30N 34°15' E 134°38'612.3
2017-Dec-13 12:00N 34°18' E 134°32'612.3
2017-Dec-13 11:30N 34°20' E 134°25'1212.3
2017-Dec-13 10:32N 34°25' E 134°11'9 0.5
2017-Dec-12 14:08N 34°25' E 134°23'211.3
2017-Dec-12 13:56N 34°26' E 134°25'511.6
2017-Dec-12 13:31N 34°28' E 134°31'611.3
2017-Dec-12 13:01N 34°30' E 134°37'510.9
2017-Dec-12 12:30N 34°32' E 134°43'510.4
2017-Dec-12 12:00N 34°34' E 134°49'5 9.7
2017-Dec-12 11:30N 34°36' E 134°55'5 9.8
2017-Dec-12 11:01N 34°38' E 135°00'510.4
2017-Dec-12 10:30N 34°36' E 135°06'511.0
2017-Dec-12 10:00N 34°36' E 135°12'510.9
2017-Dec-12 09:30N 34°34' E 135°19'510.5
2017-Dec-12 09:01N 34°31' E 135°24'1 1.4
2017-Dec-12 08:30N 34°31' E 135°24'0 0.0
2017-Dec-12 08:00N 34°31' E 135°24'0 0.0
2017-Dec-12 07:30N 34°31' E 135°24'0 0.0
2017-Dec-12 07:01N 34°31' E 135°24'0 0.0
2017-Dec-12 06:31N 34°31' E 135°24'0 0.0
2017-Dec-12 06:00N 34°31' E 135°24'0 0.0
2017-Dec-12 05:31N 34°31' E 135°24'0 0.0
2017-Dec-12 05:01N 34°31' E 135°24'0 0.0
2017-Dec-12 04:30N 34°31' E 135°24'0 0.0
2017-Dec-12 04:00N 34°31' E 135°24'0 0.0
2017-Dec-12 03:31N 34°31' E 135°24'0 0.0
2017-Dec-12 03:01N 34°31' E 135°24'0 0.2
2017-Dec-12 02:31N 34°31' E 135°24'2 3.7
2017-Dec-12 02:00N 34°33' E 135°24'3 6.7
2017-Dec-12 01:31N 34°35' E 135°21'1 2.5
2017-Dec-12 01:00N 34°35' E 135°19'4 7.0
2017-Dec-12 00:31N 34°39' E 135°19'1 2.5
2017-Dec-12 00:01N 34°40' E 135°18'0 0.0
2017-Dec-11 23:31N 34°40' E 135°18'0 0.0
2017-Dec-11 23:00N 34°40' E 135°18'0 0.0
2017-Dec-11 22:30N 34°40' E 135°18'0 0.6
2017-Dec-11 21:59N 34°40' E 135°18'2 3.3
2017-Dec-11 21:30N 34°38' E 135°19'0 0.2
2017-Dec-11 21:00N 34°38' E 135°19'0 0.0
2017-Dec-11 20:30N 34°38' E 135°19'0 0.0
2017-Dec-11 20:00N 34°38' E 135°19'0 0.0
2017-Dec-11 19:30N 34°38' E 135°19'0 0.0
2017-Dec-11 19:00N 34°38' E 135°19'0 0.0
2017-Dec-11 18:30N 34°38' E 135°19'0 0.0
2017-Dec-11 18:00N 34°38' E 135°19'0 0.0
2017-Dec-11 17:30N 34°38' E 135°19'0 0.0
2017-Dec-11 17:00N 34°38' E 135°19'0 0.0
2017-Dec-11 16:27N 34°38' E 135°19'0 0.0
2017-Dec-11 15:57N 34°38' E 135°19'0 0.0
2017-Dec-11 15:30N 34°38' E 135°19'0 0.0
2017-Dec-11 15:00N 34°38' E 135°19'0 0.0
2017-Dec-11 14:27N 34°38' E 135°19'0 0.0
2017-Dec-11 14:00N 34°38' E 135°19'0 0.0
2017-Dec-11 13:30N 34°38' E 135°19'0 0.0
2017-Dec-11 12:57N 34°38' E 135°19'0 0.0
2017-Dec-11 12:30N 34°38' E 135°19'0 0.0
2017-Dec-11 12:00N 34°38' E 135°19'0 0.0
2017-Dec-11 11:30N 34°38' E 135°19'0 0.0
2017-Dec-11 11:00N 34°38' E 135°19'0 0.0
2017-Dec-11 10:30N 34°38' E 135°19'0 0.0
2017-Dec-11 10:00N 34°38' E 135°19'0 0.0
2017-Dec-11 09:30N 34°38' E 135°19'0 0.0
2017-Dec-11 09:00N 34°38' E 135°19'0 0.0
2017-Dec-11 08:27N 34°38' E 135°19'0 0.0
2017-Dec-11 08:00N 34°38' E 135°19'0 0.0
2017-Dec-11 07:30N 34°38' E 135°19'0 0.0
2017-Dec-11 07:00N 34°38' E 135°19'0 0.0
2017-Dec-11 06:27N 34°38' E 135°19'0 0.0
2017-Dec-11 06:00N 34°38' E 135°19'0 0.1
2017-Dec-11 05:30N 34°38' E 135°19'0 0.0
2017-Dec-11 05:00N 34°38' E 135°19'0 0.0
2017-Dec-11 04:30N 34°38' E 135°19'0 0.0
2017-Dec-11 03:57N 34°38' E 135°19'0 0.0
2017-Dec-11 03:30N 34°38' E 135°19'0 0.0
2017-Dec-11 02:57N 34°38' E 135°19'0 0.0
2017-Dec-11 02:30N 34°38' E 135°19'0 0.0
2017-Dec-11 02:00N 34°38' E 135°19'0 0.0
2017-Dec-11 01:30N 34°38' E 135°19'0 0.0
2017-Dec-11 01:00N 34°38' E 135°19'0 0.0
2017-Dec-11 00:30N 34°38' E 135°19'0 0.0
2017-Dec-11 00:00N 34°38' E 135°19'0 0.0
2017-Dec-10 23:30N 34°38' E 135°19'0 0.0
2017-Dec-10 23:00N 34°38' E 135°19'0 0.0
2017-Dec-10 22:30N 34°38' E 135°19'0 0.0
2017-Dec-10 22:00N 34°38' E 135°19'0 0.0
2017-Dec-10 21:30N 34°38' E 135°19'0 0.1
2017-Dec-10 21:01N 34°38' E 135°19'510.0
2017-Dec-10 20:30N 34°36' E 135°14'611.8
2017-Dec-10 20:01N 34°35' E 135°07'611.4
2017-Dec-10 19:31N 34°37' E 135°00'611.5
2017-Dec-10 19:00N 34°35' E 134°54'611.1
2017-Dec-10 18:30N 34°33' E 134°48'611.4
2017-Dec-10 18:00N 34°31' E 134°41'611.7
2017-Dec-10 17:30N 34°28' E 134°35'711.7
2017-Dec-10 16:56N 34°26' E 134°27'1211.3
2017-Dec-10 15:51N 34°24' E 134°12'7510.3
2017-Dec-10 08:33N 34°04' E 132°45'111.8
2017-Dec-10 08:27N 34°04' E 132°44'511.7
2017-Dec-10 08:00N 34°01' E 132°38'711.2
2017-Dec-10 07:24N 33°57' E 132°32'511.5
2017-Dec-10 06:59N 33°54' E 132°28'612.1
2017-Dec-10 06:28N 33°50' E 132°22'1112.0
2017-Dec-10 05:32N 33°48' E 132°08'312.3
2017-Dec-10 05:17N 33°46' E 132°05'310.8
2017-Dec-10 05:00N 33°46' E 132°02'611.7
2017-Dec-10 04:29N 33°50' E 131°56'911.3
2017-Dec-10 03:41N 33°56' E 131°48'210.9
2017-Dec-10 03:30N 33°57' E 131°46'4 8.0
2017-Dec-10 03:00N 34°01' E 131°48'1 0.4
2017-Dec-09 23:13N 34°02' E 131°49'0 0.4
2017-Dec-09 22:57N 34°02' E 131°49'1 1.9
2017-Dec-09 22:30N 34°02' E 131°48'0 0.0
2017-Dec-09 21:48N 34°02' E 131°48'0 0.0
2017-Dec-09 21:31N 34°02' E 131°48'0 0.0
2017-Dec-09 21:00N 34°02' E 131°48'0 0.0
2017-Dec-09 20:30N 34°02' E 131°48'0 0.0
2017-Dec-09 20:00N 34°02' E 131°48'0 0.0
2017-Dec-09 19:29N 34°02' E 131°48'0 0.0
2017-Dec-09 19:00N 34°02' E 131°48'0 0.0
2017-Dec-09 18:31N 34°02' E 131°48'0 0.0
2017-Dec-09 17:59N 34°02' E 131°48'0 0.0
2017-Dec-09 17:29N 34°02' E 131°48'2 4.0
2017-Dec-09 16:59N 34°00' E 131°46'5 9.7
2017-Dec-09 16:30N 33°56' E 131°47'612.2
2017-Dec-09 16:00N 33°52' E 131°53'812.1
2017-Dec-09 15:21N 33°47' E 132°01'3 9.2
2017-Dec-09 15:00N 33°46' E 132°04'611.8
2017-Dec-09 14:28N 33°49' E 132°11'611.8
2017-Dec-09 13:55N 33°50' E 132°18'1312.0
2017-Dec-09 12:52N 33°53' E 132°33'512.6
2017-Dec-09 12:29N 33°55' E 132°39'712.8
2017-Dec-09 11:57N 33°60' E 132°45'90 3.9
2017-Dec-08 12:54N 34°18' E 134°31'511.0
2017-Dec-08 12:29N 34°16' E 134°36'510.4
2017-Dec-08 12:01N 34°13' E 134°40'23 9.4
2017-Dec-08 09:34N 33°56' E 134°58'195 8.9
2017-Dec-07 11:38N 34°35' E 138°49'5 9.2
2017-Dec-07 11:06N 34°36' E 138°55'4 9.7
2017-Dec-07 10:44N 34°38' E 138°59'411.3
2017-Dec-07 10:24N 34°41' E 139°02'2510.8
2017-Dec-07 08:07N 34°58' E 139°23'210.0
2017-Dec-07 07:54N 34°59' E 139°25'4 9.6
2017-Dec-07 07:29N 35°01' E 139°29'510.8
2017-Dec-07 07:00N 35°04' E 139°35'611.8
2017-Dec-07 06:30N 35°06' E 139°41'611.3
2017-Dec-07 06:00N 35°11' E 139°45'510.4
2017-Dec-07 05:30N 35°16' E 139°45'510.8
2017-Dec-07 05:00N 35°21' E 139°42'510.3
2017-Dec-07 04:30N 35°26' E 139°45'611.4
2017-Dec-07 04:01N 35°29' E 139°50'611.4
2017-Dec-07 03:30N 35°30' E 139°57'  
Track history (hours):
 
Tides and Currents Weather Stations Pressure Air Temp Water Temp Dewpoint Dewpoint Depression Visibility Wind Speed Wind Dir Waves Ship Positions

Eiho Maru No.1

Last reported at 2017-Dec-16 23:27 UTC. Time now 2017-Dec-17 02:43 UTC.
Position N 35°41' E 139°59'.

Length 60 m; draft 3.5 m.

Type: Tanker. MMSI: 431009376.

Date/timePositionNaut miles runAvg speedWind from/ knotsBaromVisibWave heightAir tempDewpointWater temp
2017-Dec-16 23:27N 35°41' E 139°59'2 3.6
2017-Dec-16 23:00N 35°39' E 139°59'3 6.1
2017-Dec-16 22:30N 35°36' E 139°57'0 0.1
2017-Dec-16 22:00N 35°36' E 139°57'0 0.0
2017-Dec-16 21:30N 35°36' E 139°57'0 0.0
2017-Dec-16 20:57N 35°36' E 139°57'0 0.0
2017-Dec-16 20:30N 35°36' E 139°57'0 0.0
2017-Dec-16 20:00N 35°36' E 139°57'0 0.0
2017-Dec-16 18:46N 35°36' E 139°57'0 0.0
2017-Dec-16 18:29N 35°36' E 139°57'0 0.1
2017-Dec-16 18:00N 35°36' E 139°57'0 0.0
2017-Dec-16 17:24N 35°37' E 139°57'0 0.0
2017-Dec-16 16:54N 35°37' E 139°57'0 0.0
2017-Dec-16 16:29N 35°37' E 139°57'0 0.0
2017-Dec-16 16:00N 35°37' E 139°57'0 0.1
2017-Dec-16 15:30N 35°37' E 139°57'0 0.1
2017-Dec-16 15:00N 35°37' E 139°57'0 0.1
2017-Dec-16 14:28N 35°37' E 139°57'0 0.0
2017-Dec-16 13:59N 35°37' E 139°57'0 0.0
2017-Dec-16 13:28N 35°37' E 139°57'0 0.0
2017-Dec-16 13:00N 35°37' E 139°57'0 0.0
2017-Dec-16 12:30N 35°37' E 139°57'0 0.0
2017-Dec-16 12:00N 35°37' E 139°57'0 0.0
2017-Dec-16 11:29N 35°37' E 139°57'0 0.0
2017-Dec-16 11:00N 35°37' E 139°57'0 0.0
2017-Dec-16 10:30N 35°37' E 139°57'0 0.0
2017-Dec-16 10:00N 35°37' E 139°57'0 0.0
2017-Dec-16 09:30N 35°37' E 139°57'4 7.8
2017-Dec-16 09:00N 35°40' E 139°57'1 0.3
2017-Dec-16 05:38N 35°40' E 139°57'311.4
2017-Dec-16 05:23N 35°37' E 139°59'411.6
2017-Dec-16 05:00N 35°33' E 140°02'2 0.3
2017-Dec-15 23:12N 35°32' E 140°03'0 0.5
2017-Dec-15 23:01N 35°32' E 140°03'2 3.1
2017-Dec-15 22:31N 35°33' E 140°03'4 7.2
2017-Dec-15 22:00N 35°36' E 140°06'0 0.9
2017-Dec-15 21:29N 35°36' E 140°06'0 0.0
2017-Dec-15 20:59N 35°36' E 140°06'0 0.0
2017-Dec-15 20:29N 35°36' E 140°06'0 0.0
2017-Dec-15 19:59N 35°36' E 140°06'0 0.0
2017-Dec-15 19:23N 35°36' E 140°06'0 0.0
2017-Dec-15 18:59N 35°36' E 140°06'0 0.0
2017-Dec-15 18:29N 35°36' E 140°06'0 0.0
2017-Dec-15 17:59N 35°36' E 140°06'0 0.0
2017-Dec-15 17:29N 35°36' E 140°06'0 0.0
2017-Dec-15 16:59N 35°36' E 140°06'0 0.0
2017-Dec-15 16:29N 35°36' E 140°06'0 0.0
2017-Dec-15 15:59N 35°36' E 140°06'0 0.0
2017-Dec-15 15:29N 35°36' E 140°06'0 0.0
2017-Dec-15 14:59N 35°36' E 140°06'0 0.0
2017-Dec-15 14:29N 35°36' E 140°06'0 0.0
2017-Dec-15 13:59N 35°36' E 140°06'0 0.0
2017-Dec-15 13:29N 35°36' E 140°06'0 0.0
2017-Dec-15 12:59N 35°36' E 140°06'0 0.0
2017-Dec-15 12:29N 35°36' E 140°06'0 0.0
2017-Dec-15 11:59N 35°36' E 140°06'0 0.0
2017-Dec-15 11:29N 35°36' E 140°06'0 0.0
2017-Dec-15 10:59N 35°36' E 140°06'0 0.0
2017-Dec-15 10:29N 35°36' E 140°06'0 0.0
2017-Dec-15 09:59N 35°36' E 140°06'0 0.0
2017-Dec-15 09:29N 35°36' E 140°06'0 0.0
2017-Dec-15 08:59N 35°36' E 140°06'0 0.0
2017-Dec-15 08:29N 35°36' E 140°06'0 0.0
2017-Dec-15 07:59N 35°36' E 140°06'0 0.0
2017-Dec-15 07:29N 35°36' E 140°06'0 0.0
2017-Dec-15 06:59N 35°36' E 140°06'0 0.0
2017-Dec-15 06:29N 35°36' E 140°06'0 0.0
2017-Dec-15 05:59N 35°36' E 140°06'0 0.0
2017-Dec-15 05:23N 35°36' E 140°06'0 0.0
2017-Dec-15 04:59N 35°36' E 140°06'0 0.0
2017-Dec-15 04:29N 35°36' E 140°06'0 0.0
2017-Dec-15 04:01N 35°36' E 140°06'10 6.8
2017-Dec-15 02:31N 35°29' E 139°57'2 0.2
2017-Dec-14 18:26N 35°29' E 139°55'0 0.0
2017-Dec-14 17:44N 35°29' E 139°55'0 0.0
2017-Dec-14 17:26N 35°29' E 139°55'1 1.3
2017-Dec-14 17:00N 35°29' E 139°54'510.7
2017-Dec-14 16:30N 35°26' E 139°48'611.2
2017-Dec-14 16:00N 35°21' E 139°45'1110.8
2017-Dec-14 15:00N 35°10' E 139°46'510.3
2017-Dec-14 14:30N 35°06' E 139°43'510.9
2017-Dec-14 14:00N 35°02' E 139°38'611.5
2017-Dec-14 13:30N 34°59' E 139°32'711.8
2017-Dec-14 12:55N 34°55' E 139°25'512.5
2017-Dec-14 12:30N 34°52' E 139°21'713.4
2017-Dec-14 12:00N 34°48' E 139°14'813.7
2017-Dec-14 11:27N 34°43' E 139°07'512.3
2017-Dec-14 11:01N 34°39' E 139°02'612.3
2017-Dec-14 10:30N 34°36' E 138°56'912.4
2017-Dec-14 09:47N 34°34' E 138°46'412.8
2017-Dec-14 09:27N 34°33' E 138°41'611.8
2017-Dec-14 08:58N 34°31' E 138°34'611.9
2017-Dec-14 08:29N 34°30' E 138°27'711.9
2017-Dec-14 07:51N 34°28' E 138°18'411.9
2017-Dec-14 07:30N 34°27' E 138°13'711.3
2017-Dec-14 06:51N 34°25' E 138°05'411.2
2017-Dec-14 06:28N 34°24' E 137°60'152 9.6
2017-Dec-13 14:37N 33°55' E 134°60'112.2
2017-Dec-13 14:30N 33°56' E 134°58'612.2
2017-Dec-13 14:00N 34°00' E 134°54'612.2
2017-Dec-13 13:30N 34°05' E 134°49'712.8
2017-Dec-13 12:57N 34°10' E 134°43'613.7
2017-Dec-13 12:30N 34°15' E 134°38'612.3
2017-Dec-13 12:00N 34°18' E 134°32'612.3
2017-Dec-13 11:30N 34°20' E 134°25'1212.3
2017-Dec-13 10:32N 34°25' E 134°11'9 0.5
2017-Dec-12 14:08N 34°25' E 134°23'211.3
2017-Dec-12 13:56N 34°26' E 134°25'511.6
2017-Dec-12 13:31N 34°28' E 134°31'611.3
2017-Dec-12 13:01N 34°30' E 134°37'510.9
2017-Dec-12 12:30N 34°32' E 134°43'510.4
2017-Dec-12 12:00N 34°34' E 134°49'5 9.7
2017-Dec-12 11:30N 34°36' E 134°55'5 9.8
2017-Dec-12 11:01N 34°38' E 135°00'510.4
2017-Dec-12 10:30N 34°36' E 135°06'511.0
2017-Dec-12 10:00N 34°36' E 135°12'510.9
2017-Dec-12 09:30N 34°34' E 135°19'510.5
2017-Dec-12 09:01N 34°31' E 135°24'1 1.4
2017-Dec-12 08:30N 34°31' E 135°24'0 0.0
2017-Dec-12 08:00N 34°31' E 135°24'0 0.0
2017-Dec-12 07:30N 34°31' E 135°24'0 0.0
2017-Dec-12 07:01N 34°31' E 135°24'0 0.0
2017-Dec-12 06:31N 34°31' E 135°24'0 0.0
2017-Dec-12 06:00N 34°31' E 135°24'0 0.0
2017-Dec-12 05:31N 34°31' E 135°24'0 0.0
2017-Dec-12 05:01N 34°31' E 135°24'0 0.0
2017-Dec-12 04:30N 34°31' E 135°24'0 0.0
2017-Dec-12 04:00N 34°31' E 135°24'0 0.0
2017-Dec-12 03:31N 34°31' E 135°24'0 0.0
2017-Dec-12 03:01N 34°31' E 135°24'0 0.2
2017-Dec-12 02:31N 34°31' E 135°24'2 3.7
2017-Dec-12 02:00N 34°33' E 135°24'3 6.7
2017-Dec-12 01:31N 34°35' E 135°21'1 2.5
2017-Dec-12 01:00N 34°35' E 135°19'4 7.0
2017-Dec-12 00:31N 34°39' E 135°19'1 2.5
2017-Dec-12 00:01N 34°40' E 135°18'0 0.0
2017-Dec-11 23:31N 34°40' E 135°18'0 0.0
2017-Dec-11 23:00N 34°40' E 135°18'0 0.0
2017-Dec-11 22:30N 34°40' E 135°18'0 0.6
2017-Dec-11 21:59N 34°40' E 135°18'2 3.3
2017-Dec-11 21:30N 34°38' E 135°19'0 0.2
2017-Dec-11 21:00N 34°38' E 135°19'0 0.0
2017-Dec-11 20:30N 34°38' E 135°19'0 0.0
2017-Dec-11 20:00N 34°38' E 135°19'0 0.0
2017-Dec-11 19:30N 34°38' E 135°19'0 0.0
2017-Dec-11 19:00N 34°38' E 135°19'0 0.0
2017-Dec-11 18:30N 34°38' E 135°19'0 0.0
2017-Dec-11 18:00N 34°38' E 135°19'0 0.0
2017-Dec-11 17:30N 34°38' E 135°19'0 0.0
2017-Dec-11 17:00N 34°38' E 135°19'0 0.0
2017-Dec-11 16:27N 34°38' E 135°19'0 0.0
2017-Dec-11 15:57N 34°38' E 135°19'0 0.0
2017-Dec-11 15:30N 34°38' E 135°19'0 0.0
2017-Dec-11 15:00N 34°38' E 135°19'0 0.0
2017-Dec-11 14:27N 34°38' E 135°19'0 0.0
2017-Dec-11 14:00N 34°38' E 135°19'0 0.0
2017-Dec-11 13:30N 34°38' E 135°19'0 0.0
2017-Dec-11 12:57N 34°38' E 135°19'0 0.0
2017-Dec-11 12:30N 34°38' E 135°19'0 0.0
2017-Dec-11 12:00N 34°38' E 135°19'0 0.0
2017-Dec-11 11:30N 34°38' E 135°19'0 0.0
2017-Dec-11 11:00N 34°38' E 135°19'0 0.0
2017-Dec-11 10:30N 34°38' E 135°19'0 0.0
2017-Dec-11 10:00N 34°38' E 135°19'0 0.0
2017-Dec-11 09:30N 34°38' E 135°19'0 0.0
2017-Dec-11 09:00N 34°38' E 135°19'0 0.0
2017-Dec-11 08:27N 34°38' E 135°19'0 0.0
2017-Dec-11 08:00N 34°38' E 135°19'0 0.0
2017-Dec-11 07:30N 34°38' E 135°19'0 0.0
2017-Dec-11 07:00N 34°38' E 135°19'0 0.0
2017-Dec-11 06:27N 34°38' E 135°19'0 0.0
2017-Dec-11 06:00N 34°38' E 135°19'0 0.1
2017-Dec-11 05:30N 34°38' E 135°19'0 0.0
2017-Dec-11 05:00N 34°38' E 135°19'0 0.0
2017-Dec-11 04:30N 34°38' E 135°19'0 0.0
2017-Dec-11 03:57N 34°38' E 135°19'0 0.0
2017-Dec-11 03:30N 34°38' E 135°19'0 0.0
2017-Dec-11 02:57N 34°38' E 135°19'0 0.0
2017-Dec-11 02:30N 34°38' E 135°19'0 0.0
2017-Dec-11 02:00N 34°38' E 135°19'0 0.0
2017-Dec-11 01:30N 34°38' E 135°19'0 0.0
2017-Dec-11 01:00N 34°38' E 135°19'0 0.0
2017-Dec-11 00:30N 34°38' E 135°19'0 0.0
2017-Dec-11 00:00N 34°38' E 135°19'0 0.0
2017-Dec-10 23:30N 34°38' E 135°19'0 0.0
2017-Dec-10 23:00N 34°38' E 135°19'0 0.0
2017-Dec-10 22:30N 34°38' E 135°19'0 0.0
2017-Dec-10 22:00N 34°38' E 135°19'0 0.0
2017-Dec-10 21:30N 34°38' E 135°19'0 0.1
2017-Dec-10 21:01N 34°38' E 135°19'510.0
2017-Dec-10 20:30N 34°36' E 135°14'611.8
2017-Dec-10 20:01N 34°35' E 135°07'611.4
2017-Dec-10 19:31N 34°37' E 135°00'611.5
2017-Dec-10 19:00N 34°35' E 134°54'611.1
2017-Dec-10 18:30N 34°33' E 134°48'611.4
2017-Dec-10 18:00N 34°31' E 134°41'611.7
2017-Dec-10 17:30N 34°28' E 134°35'711.7
2017-Dec-10 16:56N 34°26' E 134°27'1211.3
2017-Dec-10 15:51N 34°24' E 134°12'7510.3
2017-Dec-10 08:33N 34°04' E 132°45'111.8
2017-Dec-10 08:27N 34°04' E 132°44'511.7
2017-Dec-10 08:00N 34°01' E 132°38'711.2
2017-Dec-10 07:24N 33°57' E 132°32'511.5
2017-Dec-10 06:59N 33°54' E 132°28'612.1
2017-Dec-10 06:28N 33°50' E 132°22'1112.0
2017-Dec-10 05:32N 33°48' E 132°08'312.3
2017-Dec-10 05:17N 33°46' E 132°05'310.8
2017-Dec-10 05:00N 33°46' E 132°02'611.7
2017-Dec-10 04:29N 33°50' E 131°56'911.3
2017-Dec-10 03:41N 33°56' E 131°48'210.9
2017-Dec-10 03:30N 33°57' E 131°46'4 8.0
2017-Dec-10 03:00N 34°01' E 131°48'1 0.4
2017-Dec-09 23:13N 34°02' E 131°49'0 0.4
2017-Dec-09 22:57N 34°02' E 131°49'1 1.9
2017-Dec-09 22:30N 34°02' E 131°48'0 0.0
2017-Dec-09 21:48N 34°02' E 131°48'0 0.0
2017-Dec-09 21:31N 34°02' E 131°48'0 0.0
2017-Dec-09 21:00N 34°02' E 131°48'0 0.0
2017-Dec-09 20:30N 34°02' E 131°48'0 0.0
2017-Dec-09 20:00N 34°02' E 131°48'0 0.0
2017-Dec-09 19:29N 34°02' E 131°48'0 0.0
2017-Dec-09 19:00N 34°02' E 131°48'0 0.0
2017-Dec-09 18:31N 34°02' E 131°48'0 0.0
2017-Dec-09 17:59N 34°02' E 131°48'0 0.0
2017-Dec-09 17:29N 34°02' E 131°48'2 4.0
2017-Dec-09 16:59N 34°00' E 131°46'5 9.7
2017-Dec-09 16:30N 33°56' E 131°47'612.2
2017-Dec-09 16:00N 33°52' E 131°53'812.1
2017-Dec-09 15:21N 33°47' E 132°01'3 9.2
2017-Dec-09 15:00N 33°46' E 132°04'611.8
2017-Dec-09 14:28N 33°49' E 132°11'611.8
2017-Dec-09 13:55N 33°50' E 132°18'1312.0
2017-Dec-09 12:52N 33°53' E 132°33'512.6
2017-Dec-09 12:29N 33°55' E 132°39'712.8
2017-Dec-09 11:57N 33°60' E 132°45'90 3.9
2017-Dec-08 12:54N 34°18' E 134°31'511.0
2017-Dec-08 12:29N 34°16' E 134°36'510.4
2017-Dec-08 12:01N 34°13' E 134°40'23 9.4
2017-Dec-08 09:34N 33°56' E 134°58'195 8.9
2017-Dec-07 11:38N 34°35' E 138°49'5 9.2
2017-Dec-07 11:06N 34°36' E 138°55'4 9.7
2017-Dec-07 10:44N 34°38' E 138°59'411.3
2017-Dec-07 10:24N 34°41' E 139°02'2510.8
2017-Dec-07 08:07N 34°58' E 139°23'210.0
2017-Dec-07 07:54N 34°59' E 139°25'4 9.6
2017-Dec-07 07:29N 35°01' E 139°29'510.8
2017-Dec-07 07:00N 35°04' E 139°35'611.8
2017-Dec-07 06:30N 35°06' E 139°41'611.3
2017-Dec-07 06:00N 35°11' E 139°45'510.4
2017-Dec-07 05:30N 35°16' E 139°45'510.8
2017-Dec-07 05:00N 35°21' E 139°42'510.3
2017-Dec-07 04:30N 35°26' E 139°45'611.4
2017-Dec-07 04:01N 35°29' E 139°50'611.4
2017-Dec-07 03:30N 35°30' E 139°57'  

Dump ship's entire track history